Time;durP1;ratioP1;P1;durP2;ratioP2;P2;SDS_P1;SDS_P2;PMS_P1;PMS_P2;Temp;Humidity;BMP_temperature;BMP_pressure;BME280_temperature;BME280_humidity;BME280_pressure;Samples;Min_cycle;Max_cycle;Signal;HPM_P1;HPM_P2
2023/01/04 00:02:04;;;;;;;11.00;6.50;;;10.30;99.90;;;10.40;100.00;101523.00;5071993;28;20517;-70
2023/01/04 00:04:34;;;;;;;9.90;6.25;;;10.30;99.90;;;10.49;100.00;101512.50;5072906;28;20044;-71
2023/01/04 00:07:02;;;;;;;10.13;6.30;;;10.30;99.90;;;10.46;100.00;101480.75;5073233;28;20048;-69
2023/01/04 00:09:31;;;;;;;8.88;6.18;;;10.30;99.90;;;10.49;100.00;101541.59;5072932;28;20041;-69
2023/01/04 00:11:59;;;;;;;11.68;6.65;;;10.40;99.90;;;10.45;100.00;101490.41;5071882;28;20496;-70
2023/01/04 00:14:28;;;;;;;11.38;6.32;;;10.30;99.90;;;10.54;100.00;101486.97;5087511;28;20059;-69
2023/01/04 00:16:56;;;;;;;7.10;5.88;;;10.40;99.90;;;10.50;100.00;101503.69;5093530;28;20097;-69
2023/01/04 00:19:25;;;;;;;10.43;6.15;;;10.40;99.90;;;10.50;100.00;101486.06;5093054;28;20044;-71
2023/01/04 00:21:54;;;;;;;9.32;6.38;;;10.40;99.90;;;10.50;100.00;101469.31;5093263;28;20036;-71
2023/01/04 00:24:23;;;;;;;9.32;6.82;;;10.40;99.90;;;10.42;100.00;101494.81;5092902;28;20089;-71
2023/01/04 00:26:51;;;;;;;8.93;6.82;;;10.40;99.90;;;10.52;100.00;101496.66;5093280;28;20036;-70
2023/01/04 00:29:20;;;;;;;10.77;6.60;;;10.40;99.90;;;10.48;100.00;101450.78;5092858;28;20501;-70
2023/01/04 00:31:49;;;;;;;13.63;7.72;;;10.40;99.90;;;10.50;100.00;101462.25;5095565;28;20051;-69
2023/01/04 00:34:18;;;;;;;9.93;7.43;;;10.40;99.90;;;10.53;100.00;101490.50;5097286;28;20505;-71
2023/01/04 00:36:47;;;;;;;9.50;8.23;;;10.40;99.90;;;10.59;100.00;101448.19;5096934;28;20490;-72
2023/01/04 00:39:17;;;;;;;13.68;8.40;;;10.40;99.90;;;10.39;100.00;101437.53;5095564;28;20503;-71
2023/01/04 00:41:48;;;;;;;11.55;8.10;;;10.50;99.90;;;10.64;100.00;101446.47;5096911;28;20091;-71
2023/01/04 00:44:33;;;;;;;14.55;8.68;;;10.50;99.90;;;10.70;100.00;101465.00;5078851;28;20136;-71
2023/01/04 00:47:03;;;;;;;15.40;9.18;;;10.50;99.90;;;10.69;100.00;101489.69;5097067;28;20048;-71
2023/01/04 00:49:33;;;;;;;10.00;8.60;;;10.50;99.90;;;10.73;100.00;101452.66;5096666;28;20046;-71
2023/01/04 00:52:01;;;;;;;13.52;8.50;;;10.60;99.90;;;10.78;100.00;101456.22;5096658;28;20036;-71
2023/01/04 00:54:31;;;;;;;13.63;8.75;;;10.60;99.90;;;10.83;100.00;101446.53;5097157;28;20050;-71
2023/01/04 00:57:00;;;;;;;10.27;8.18;;;10.70;99.90;;;10.82;100.00;101459.75;5097192;28;20094;-71
2023/01/04 00:59:29;;;;;;;14.15;8.00;;;10.70;99.90;;;10.86;100.00;101443.00;5096533;28;20036;-71
2023/01/04 01:01:57;;;;;;;9.57;7.55;;;10.70;99.90;;;10.30;100.00;101352.00;5078547;28;20044;-71
2023/01/04 01:04:26;;;;;;;14.30;7.53;;;10.70;99.90;;;11.00;100.00;101445.69;5096590;28;20053;-71
2023/01/04 01:06:54;;;;;;;11.23;7.50;;;10.80;99.90;;;10.94;100.00;101438.63;5078452;28;20482;-72
2023/01/04 01:09:23;;;;;;;11.70;7.63;;;10.80;99.90;;;11.01;100.00;101435.13;5096329;28;20451;-71
2023/01/04 01:11:54;;;;;;;10.80;7.60;;;10.80;99.90;;;10.99;100.00;101417.47;5078388;28;20074;-72
2023/01/04 01:14:24;;;;;;;12.45;8.10;;;10.90;99.90;;;11.05;100.00;101422.78;5096382;28;20051;-71
2023/01/04 01:16:53;;;;;;;;;;;10.90;99.90;;;11.08;100.00;101446.59;5096660;28;20044;-71
2023/01/04 01:19:26;;;;;;;9.55;7.35;;;10.90;99.90;;;11.09;100.00;101449.25;5096390;28;19942;-72
2023/01/04 01:21:56;;;;;;;9.93;7.75;;;10.90;99.90;;;10.97;100.00;101411.28;5096091;28;20041;-71
2023/01/04 01:24:26;;;;;;;12.85;8.48;;;11.00;99.90;;;11.00;100.00;101414.81;5078156;28;20056;-71
2023/01/04 01:26:56;;;;;;;11.52;9.23;;;11.00;99.90;;;10.65;100.00;101323.88;5096228;28;20048;-71
2023/01/04 01:29:25;;;;;;;12.88;7.88;;;11.00;99.90;;;11.17;100.00;101444.88;5095996;28;20048;-71
2023/01/04 01:31:54;;;;;;;9.65;7.75;;;11.00;99.90;;;11.16;100.00;101419.28;5095908;28;20038;-71
2023/01/04 01:34:22;;;;;;;9.55;8.05;;;11.00;99.90;;;11.25;100.00;101429.88;5095877;28;20048;-71
2023/01/04 01:36:51;;;;;;;12.80;8.85;;;11.10;99.90;;;11.10;100.00;101398.09;5096096;28;20075;-71
2023/01/04 01:39:19;;;;;;;14.88;8.40;;;11.10;99.90;;;11.28;100.00;101432.56;5095793;28;20046;-71
2023/01/04 01:41:49;;;;;;;12.55;8.38;;;11.10;99.90;;;11.30;100.00;101438.75;5096279;28;20098;-71
2023/01/04 01:45:09;;;;;;;9.40;7.88;;;11.10;99.90;;;11.31;100.00;101411.34;5094984;28;20066;-71
2023/01/04 01:47:42;;;;;;;10.45;7.97;;;11.10;99.90;;;11.33;100.00;101411.34;5034458;28;20097;-71
2023/01/04 01:50:23;;;;;;;9.88;8.30;;;11.20;99.90;;;11.41;100.00;101418.44;5095655;28;20397;-71
2023/01/04 01:52:54;;;;;;;9.93;7.55;;;11.20;99.90;;;11.41;100.00;101429.03;5095524;28;20070;-71
2023/01/04 01:55:23;;;;;;;10.73;7.60;;;11.20;99.90;;;11.34;100.00;101424.59;5095789;28;20465;-71
2023/01/04 01:57:54;;;;;;;10.68;7.97;;;11.20;99.90;;;11.46;100.00;101415.78;5095424;28;20471;-71
2023/01/04 02:00:24;;;;;;;12.60;7.28;;;11.30;99.90;;;11.41;100.00;101410.50;5095424;28;20036;-71
2023/01/04 02:03:04;;;;;;;7.47;6.82;;;11.30;99.90;;;11.54;100.00;101384.88;5095377;28;20040;-71
2023/01/04 02:05:34;;;;;;;12.88;7.57;;;11.30;99.90;;;10.98;100.00;101323.06;5077376;28;20097;-71
2023/01/04 02:08:04;;;;;;;8.85;7.25;;;11.30;99.90;;;11.57;100.00;101414.94;5077585;28;20051;-70
2023/01/04 02:10:33;;;;;;;8.73;6.90;;;11.40;99.90;;;11.52;100.00;101414.03;5095165;28;20109;-71
2023/01/04 02:13:08;;;;;;;7.53;6.57;;;11.40;99.90;;;11.56;100.00;101410.50;5077138;28;20068;-70
2023/01/04 02:15:56;;;;;;;9.27;7.13;;;11.40;99.90;;;11.65;100.00;101420.22;5094196;28;20486;-71
2023/01/04 02:18:32;;;;;;;8.48;7.20;;;11.50;99.90;;;11.64;100.00;101416.69;5095024;28;20123;-70
2023/01/04 02:21:07;;;;;;;8.68;7.78;;;11.50;99.90;;;11.10;100.00;101321.31;5094944;28;20044;-70
2023/01/04 02:24:18;;;;;;;8.75;7.65;;;11.50;99.90;;;11.65;100.00;101428.19;5094944;28;20040;-70
2023/01/04 02:27:36;;;;;;;9.10;7.88;;;11.50;99.90;;;11.67;100.00;101426.44;5094766;28;20040;-70
2023/01/04 02:30:56;;;;;;;9.90;7.55;;;11.50;99.90;;;11.70;100.00;101406.13;5095094;28;20143;-70
2023/01/04 02:33:45;;;;;;;9.88;8.43;;;11.50;99.90;;;11.69;100.00;101358.44;5095087;28;20089;-70
2023/01/04 02:36:23;;;;;;;12.50;8.00;;;11.50;99.90;;;11.74;100.00;101378.72;5094734;28;20040;-70
2023/01/04 02:39:05;;;;;;;9.45;8.57;;;11.50;99.90;;;11.75;100.00;101401.69;5094651;28;20044;-71
2023/01/04 02:41:43;;;;;;;11.25;10.15;;;11.60;99.90;;;11.58;100.00;101376.03;5094664;28;20543;-71
2023/01/04 02:47:05;;;;;;;11.00;9.32;;;11.60;99.90;;;11.46;100.00;101342.50;5081749;28;20543;-71
2023/01/04 02:52:21;;;;;;;10.30;9.30;;;11.60;99.90;;;11.75;100.00;101388.44;5094375;28;20122;-71
2023/01/04 02:54:52;;;;;;;;;;;11.60;99.90;;;11.74;100.00;101361.94;5093828;28;20119;-71
2023/01/04 02:57:41;;;;;;;12.30;9.68;;;11.60;99.90;;;11.78;100.00;101396.41;5094630;28;19920;-70
2023/01/04 03:00:31;;;;;;;10.23;9.30;;;11.60;99.90;;;11.35;100.00;101299.25;5094297;28;20535;-70
2023/01/04 03:06:17;;;;;;;11.93;10.43;;;11.60;99.90;;;11.80;100.00;101385.78;5094060;28;20044;-70
2023/01/04 03:08:56;;;;;;;12.20;11.10;;;11.60;99.90;;;11.75;100.00;101359.28;5094134;28;20068;-71
2023/01/04 03:14:24;;;;;;;11.38;10.25;;;11.60;99.90;;;11.70;100.00;101361.06;5075825;28;20056;-70
2023/01/04 03:17:06;;;;;;;10.43;9.43;;;11.60;99.90;;;11.76;100.00;101347.81;5093993;28;20048;-70
2023/01/04 03:19:54;;;;;;;10.40;9.57;;;11.60;99.90;;;11.77;100.00;101325.72;5093918;28;20072;-70
2023/01/04 03:37:00;;;;;;;10.10;8.82;;;11.60;99.90;;;11.82;100.00;101351.31;5093599;28;20052;-71
2023/01/04 03:48:32;;;;;;;9.65;8.63;;;11.70;99.90;;;11.90;100.00;101334.53;5093355;28;20079;-70
2023/01/04 03:51:13;;;;;;;11.25;8.95;;;11.70;99.90;;;11.92;100.00;101353.97;5093439;28;20441;-70
2023/01/04 03:53:54;;;;;;;10.77;9.73;;;11.70;99.90;;;11.98;100.00;101334.50;5093905;28;20044;-70
2023/01/04 03:56:24;;;;;;;11.57;10.00;;;11.70;99.90;;;11.95;100.00;101329.19;5075472;28;20052;-70
2023/01/04 03:58:53;;;;;;;11.98;10.07;;;11.80;99.90;;;11.90;100.00;101301.84;5093591;28;20044;-70
2023/01/04 04:01:25;;;;;;;10.88;9.68;;;11.80;99.90;;;11.86;100.00;101308.91;5075369;28;20044;-70
2023/01/04 04:09:28;;;;;;;10.88;8.75;;;11.80;99.90;;;12.04;100.00;101303.53;5093162;28;20036;-70
2023/01/04 04:11:57;;;;;;;11.33;8.77;;;11.80;99.90;;;11.92;100.00;101266.50;5093171;28;20040;-70
2023/01/04 04:14:26;;;;;;;9.85;7.57;;;11.90;99.90;;;12.06;100.00;101271.75;5093250;28;20052;-70
2023/01/04 04:16:54;;;;;;;10.10;7.93;;;11.90;99.90;;;12.12;100.00;101308.81;5093057;28;20040;-70
2023/01/04 04:19:23;;;;;;;10.02;7.00;;;11.90;99.90;;;12.12;100.00;101295.56;5093309;28;20085;-70
2023/01/04 04:21:51;;;;;;;11.43;6.90;;;12.00;99.90;;;12.11;100.00;101289.38;5093305;28;20122;-70
2023/01/04 04:24:23;;;;;;;10.07;7.20;;;12.00;99.90;;;12.19;100.00;101303.50;5075076;28;20044;-70
2023/01/04 04:26:54;;;;;;;10.60;6.78;;;12.00;99.90;;;12.22;100.00;101291.97;5092983;28;20043;-70
2023/01/04 04:29:23;;;;;;;10.48;7.65;;;12.00;99.90;;;12.18;100.00;101275.22;5075210;28;20447;-70
2023/01/04 04:31:52;;;;;;;9.32;7.30;;;12.00;99.90;;;12.27;100.00;101292.84;5092965;28;20406;-70
2023/01/04 04:34:20;;;;;;;12.05;7.30;;;12.10;99.90;;;12.33;100.00;101308.75;5092934;28;20093;-71
2023/01/04 04:36:48;;;;;;;13.90;6.78;;;12.10;99.90;;;12.34;100.00;101306.09;5092896;28;20040;-71
2023/01/04 04:39:17;;;;;;;9.80;6.80;;;12.10;99.90;;;12.33;100.00;101293.69;5092841;28;20040;-71
2023/01/04 04:41:45;;;;;;;9.57;6.47;;;12.20;99.90;;;12.32;100.00;101260.13;5092854;28;20054;-70
2023/01/04 04:44:17;;;;;;;7.93;6.20;;;12.10;99.90;;;12.37;100.00;101297.22;5092837;28;20064;-71
2023/01/04 04:46:46;;;;;;;8.45;6.03;;;12.20;99.90;;;12.36;100.00;101283.09;5092471;28;20055;-71
2023/01/04 04:49:15;;;;;;;9.27;5.70;;;12.20;99.90;;;12.32;100.00;101276.03;5093081;28;20490;-70
2023/01/04 04:51:45;;;;;;;7.57;6.22;;;12.20;99.90;;;12.38;100.00;101285.72;5093304;28;20036;-70
2023/01/04 04:54:18;;;;;;;7.00;6.30;;;12.20;99.90;;;12.35;100.00;101301.66;5092837;28;20393;-70
2023/01/04 04:56:47;;;;;;;7.10;6.20;;;12.20;99.90;;;12.43;100.00;101282.16;5092749;28;20486;-70
2023/01/04 04:59:17;;;;;;;7.43;6.72;;;12.20;99.90;;;12.41;100.00;101260.06;5092613;28;20048;-70
2023/01/04 05:01:45;;;;;;;11.05;6.38;;;12.20;99.90;;;12.37;100.00;101271.56;5093267;28;20089;-70
2023/01/04 05:04:15;;;;;;;6.68;6.00;;;12.20;99.90;;;12.35;100.00;101244.16;5092619;28;20490;-72
2023/01/04 05:06:44;;;;;;;6.85;6.28;;;12.20;99.90;;;12.47;100.00;101245.88;5092797;28;20127;-72
2023/01/04 05:09:13;;;;;;;7.65;6.88;;;12.20;99.90;;;12.38;100.00;101257.44;5092592;28;20044;-72
2023/01/04 05:14:30;;;;;;;8.75;7.93;;;12.20;99.90;;;12.46;100.00;101255.63;5092848;28;20160;-72
2023/01/04 05:16:58;;;;;;;8.23;7.53;;;12.20;99.90;;;12.46;100.00;101271.53;5074678;28;20073;-72
2023/01/04 05:19:27;;;;;;;9.40;8.55;;;12.20;99.90;;;12.43;100.00;101233.50;5095702;28;20043;-72
2023/01/04 05:21:55;;;;;;;9.57;8.23;;;12.20;99.90;;;11.95;100.00;101165.72;5096453;28;20075;-72
2023/01/04 05:24:24;;;;;;;9.18;8.38;;;12.20;99.90;;;12.38;100.00;101251.25;5096148;28;20113;-72
2023/01/04 05:26:52;;;;;;;9.55;8.55;;;12.20;99.90;;;12.43;100.00;101244.13;5096029;28;20040;-72
2023/01/04 05:32:08;;;;;;;9.68;8.68;;;12.30;99.90;;;11.93;100.00;101127.75;5078111;28;20551;-72
2023/01/04 05:34:37;;;;;;;12.43;8.40;;;12.30;99.90;;;12.47;100.00;101230.84;5095916;28;20040;-72
2023/01/04 05:37:05;;;;;;;8.70;7.90;;;12.20;99.90;;;12.29;100.00;101191.16;5096143;28;20481;-72
2023/01/04 05:39:33;;;;;;;7.55;6.85;;;12.30;99.90;;;12.39;100.00;101211.44;5095778;28;20121;-72
2023/01/04 05:44:48;;;;;;;8.70;7.47;;;12.20;99.90;;;12.50;100.00;101198.09;5095738;28;20036;-72
2023/01/04 05:47:18;;;;;;;7.72;7.13;;;12.30;99.90;;;12.48;100.00;101205.19;5095572;28;20409;-72
2023/01/04 05:49:46;;;;;;;7.70;7.00;;;12.30;99.90;;;12.49;100.00;101213.13;5095627;28;20493;-72
2023/01/04 05:52:15;;;;;;;10.27;7.50;;;12.30;99.90;;;12.52;100.00;101226.38;5095578;28;20044;-72
2023/01/04 05:54:43;;;;;;;9.32;8.00;;;12.30;99.90;;;12.50;100.00;101246.72;5095784;28;20040;-72
2023/01/04 05:57:13;;;;;;;9.40;8.30;;;12.30;99.90;;;12.51;100.00;101234.34;5077564;28;20048;-72
2023/01/04 05:59:42;;;;;;;7.68;6.90;;;12.30;99.90;;;12.51;100.00;101245.84;5095530;28;20047;-72
2023/01/04 06:02:18;;;;;;;8.18;7.32;;;12.30;99.90;;;12.60;100.00;101239.63;5095402;28;20047;-72
2023/01/04 06:04:47;;;;;;;9.88;6.80;;;12.40;99.90;;;11.98;100.00;101135.69;5095624;28;20048;-72
2023/01/04 06:07:25;;;;;;;8.77;6.55;;;12.40;99.90;;;12.45;100.00;101203.44;5077395;28;20140;-72
2023/01/04 06:09:54;;;;;;;11.25;6.53;;;12.40;99.90;;;12.68;100.00;101233.34;5095132;28;20050;-72
2023/01/04 06:12:22;;;;;;;14.27;6.68;;;12.40;99.90;;;12.62;100.00;101205.94;5095198;28;20085;-72
2023/01/04 06:14:51;;;;;;;21.02;6.47;;;12.50;99.90;;;12.66;100.00;101227.16;5095450;28;20059;-72
2023/01/04 06:17:20;;;;;;;9.38;6.07;;;12.50;99.90;;;12.68;100.00;101236.00;5095626;28;20046;-72
2023/01/04 06:19:49;;;;;;;11.03;6.80;;;12.50;99.90;;;12.69;100.00;101227.16;5095099;28;20043;-72
2023/01/04 06:22:17;;;;;;;8.30;6.10;;;12.50;99.90;;;12.67;100.00;101226.28;5095244;28;20079;-72
2023/01/04 06:24:45;;;;;;;9.00;6.30;;;12.50;99.90;;;12.76;100.00;101229.75;5076723;28;20086;-70
2023/01/04 06:27:14;;;;;;;14.50;6.45;;;12.50;99.90;;;12.79;100.00;101227.97;5076908;28;20048;-70
2023/01/04 06:29:42;;;;;;;14.80;6.97;;;12.60;99.90;;;12.74;100.00;101221.78;5076770;28;20055;-70
2023/01/04 06:32:11;;;;;;;12.05;6.55;;;12.60;99.90;;;12.81;100.00;101231.50;5094819;28;20382;-69
2023/01/04 06:34:41;;;;;;;15.38;6.38;;;12.60;99.90;;;12.72;100.00;101220.94;5094693;28;20558;-70
2023/01/04 06:37:10;;;;;;;11.80;6.00;;;12.60;99.90;;;12.81;100.00;101231.50;5095270;28;20040;-70
2023/01/04 06:39:38;;;;;;;13.38;6.75;;;12.60;99.90;;;12.77;100.00;101202.31;5076799;28;20460;-70
2023/01/04 06:42:43;;;;;;;13.85;7.28;;;12.60;99.90;;;12.62;100.00;101222.75;5094607;28;20036;-70
2023/01/04 06:44:56;;;;;;;14.43;6.72;;;12.60;99.90;;;12.80;100.00;101208.47;5094416;28;20118;-70
2023/01/04 06:47:25;;;;;;;16.25;6.68;;;12.60;99.90;;;12.77;100.00;101227.09;5094383;28;20046;-71
2023/01/04 06:49:54;;;;;;;16.65;6.88;;;12.60;99.90;;;12.14;100.00;101097.53;5094685;28;20071;-72
2023/01/04 06:52:23;;;;;;;20.00;6.72;;;12.60;99.90;;;12.83;100.00;101203.16;5094590;28;20040;-71
2023/01/04 06:54:51;;;;;;;13.45;6.68;;;12.60;99.90;;;12.83;100.00;101195.19;5094301;28;20413;-71
2023/01/04 06:57:19;;;;;;;14.30;6.72;;;12.60;99.90;;;12.85;100.00;101201.38;5076334;28;20525;-71
2023/01/04 06:59:48;;;;;;;18.65;7.07;;;12.60;99.90;;;12.69;100.00;101157.25;5094147;28;20067;-71
2023/01/04 07:02:16;;;;;;;16.92;6.03;;;12.60;99.90;;;12.33;100.00;101112.47;5094065;28;20481;-71
2023/01/04 07:04:45;;;;;;;24.58;7.95;;;12.60;99.90;;;12.76;100.00;101174.88;5094087;28;20040;-71
2023/01/04 07:07:15;;;;;;;22.75;7.35;;;12.60;99.90;;;12.83;100.00;101195.19;5075794;28;20047;-71
2023/01/04 07:09:43;;;;;;;20.77;7.28;;;12.60;99.90;;;12.90;100.00;101172.13;5093934;28;20048;-71
2023/01/04 07:12:12;;;;;;;20.00;6.25;;;12.70;99.90;;;12.88;100.00;101187.16;5094086;28;20393;-71
2023/01/04 07:14:40;;;;;;;20.23;6.95;;;12.70;99.90;;;12.93;100.00;101185.38;5075898;28;20079;-71
2023/01/04 07:17:08;;;;;;;14.38;5.82;;;12.70;99.90;;;12.96;100.00;101178.25;5092998;28;20142;-71
2023/01/04 07:19:37;;;;;;;17.00;7.38;;;12.70;99.90;;;12.79;100.00;101156.28;5093880;28;20075;-71
2023/01/04 07:22:05;;;;;;;23.15;7.13;;;12.70;99.90;;;12.86;100.00;101179.22;5093746;28;20090;-71
2023/01/04 07:24:35;;;;;;;18.70;6.07;;;12.70;99.90;;;12.87;100.00;101159.78;5093757;28;20051;-71
2023/01/04 07:27:04;;;;;;;19.70;6.38;;;12.70;99.90;;;12.83;100.00;101192.53;5093798;28;20412;-72
2023/01/04 07:29:32;;;;;;;14.38;5.38;;;12.70;99.90;;;12.85;100.00;101164.22;5093659;28;20122;-72
2023/01/04 07:32:00;;;;;;;16.75;6.18;;;12.70;99.90;;;12.83;100.00;101173.06;5093677;28;20071;-72
2023/01/04 07:34:29;;;;;;;22.63;6.55;;;12.70;99.90;;;12.83;100.00;101146.53;5093672;28;20133;-72
2023/01/04 07:36:57;;;;;;;20.02;6.93;;;12.60;99.90;;;12.86;100.00;101178.34;5093858;28;20043;-72
2023/01/04 07:39:26;;;;;;;20.17;7.07;;;12.60;99.90;;;12.84;100.00;101159.78;5093568;28;20050;-71
2023/01/04 07:41:55;;;;;;;15.63;6.25;;;12.60;99.90;;;12.84;100.00;101177.47;5092961;28;20042;-71
2023/01/04 07:44:26;;;;;;;15.02;6.38;;;12.60;99.90;;;12.80;100.00;101176.63;5075724;28;20071;-71
2023/01/04 07:46:56;;;;;;;15.32;6.57;;;12.60;99.90;;;12.44;100.00;101110.59;5094044;28;20064;-71
2023/01/04 07:49:24;;;;;;;18.77;6.72;;;12.60;99.90;;;12.80;100.00;101171.31;5093332;28;20044;-72
2023/01/04 07:51:52;;;;;;;16.20;6.75;;;12.60;99.90;;;12.83;100.00;101170.41;5093619;28;20090;-72
2023/01/04 07:54:22;;;;;;;18.90;6.63;;;12.60;99.90;;;12.85;100.00;101187.22;5093363;28;20180;-72
2023/01/04 07:56:52;;;;;;;19.73;7.13;;;12.60;99.90;;;12.83;100.00;101168.66;5093321;28;20036;-72
2023/01/04 07:59:22;;;;;;;20.90;6.75;;;12.60;99.90;;;12.87;100.00;101178.34;5093194;28;20326;-72
2023/01/04 08:01:50;;;;;;;19.40;7.13;;;12.60;99.90;;;12.57;100.00;101133.47;5075470;28;20101;-72
2023/01/04 08:04:24;;;;;;;32.33;8.65;;;12.60;99.90;;;12.72;100.00;101170.50;5093502;28;20039;-72
2023/01/04 08:07:00;;;;;;;28.73;7.45;;;12.60;99.90;;;12.81;100.00;101158.94;5075450;28;20048;-72
2023/01/04 08:09:28;;;;;;;27.88;7.55;;;12.60;99.90;;;12.86;100.00;101171.25;5075233;28;20076;-72
2023/01/04 08:11:56;;;;;;;23.25;6.63;;;12.60;99.90;;;12.80;100.00;101159.81;5075296;28;20067;-72
2023/01/04 08:14:26;;;;;;;27.45;6.47;;;12.60;99.90;;;12.68;100.00;101144.88;5092927;28;20143;-72
2023/01/04 08:16:54;;;;;;;25.67;7.63;;;12.60;99.90;;;12.83;100.00;101167.75;5093040;28;20477;-72
2023/01/04 08:19:23;;;;;;;25.50;7.30;;;12.60;99.90;;;12.77;100.00;101155.44;5075237;28;20457;-72
2023/01/04 08:21:51;;;;;;;36.58;7.53;;;12.60;99.90;;;12.80;100.00;101184.59;5092976;28;20036;-72
2023/01/04 08:24:20;;;;;;;36.25;8.05;;;12.60;99.90;;;12.79;100.00;101169.56;5092997;28;20047;-72
2023/01/04 08:26:48;;;;;;;46.35;9.70;;;12.60;99.90;;;12.81;100.00;101172.19;5092964;28;20079;-72
2023/01/04 08:29:17;;;;;;;35.72;8.32;;;12.60;99.90;;;12.88;100.00;101179.22;5093116;28;20394;-72
2023/01/04 08:31:47;;;;;;;42.22;9.10;;;12.60;99.90;;;12.81;100.00;101162.47;5075140;28;20052;-72
2023/01/04 08:34:15;;;;;;;44.55;10.27;;;12.70;99.90;;;12.88;100.00;101182.75;5093291;28;20086;-72
2023/01/04 08:36:48;;;;;;;43.40;9.82;;;12.70;99.90;;;12.77;100.00;101139.50;5092916;28;20033;-72
2023/01/04 08:39:16;;;;;;;46.85;9.68;;;12.70;99.90;;;12.67;100.00;101162.59;5093111;28;20143;-72
2023/01/04 08:41:52;;;;;;;49.00;10.00;;;12.70;99.90;;;12.91;100.00;101188.03;5075235;28;20052;-72
2023/01/04 08:44:30;;;;;;;50.63;9.65;;;12.70;99.90;;;12.95;100.00;101208.34;5092859;28;20522;-71
2023/01/04 08:46:59;;;;;;;47.47;9.98;;;12.70;99.90;;;12.47;100.00;101129.13;5092758;28;20071;-71
2023/01/04 08:49:28;;;;;;;38.57;8.63;;;12.70;99.90;;;12.93;100.00;101215.44;5092945;28;20052;-72
2023/01/04 08:51:56;;;;;;;45.15;9.45;;;12.70;99.90;;;12.95;100.00;101208.34;5092999;28;20050;-72
2023/01/04 08:54:24;;;;;;;47.83;9.77;;;12.70;99.90;;;12.97;100.00;101216.31;5096246;28;20044;-71
2023/01/04 08:56:53;;;;;;;30.23;7.40;;;12.70;99.90;;;12.92;100.00;101203.06;5078632;28;20071;-72
2023/01/04 08:59:21;;;;;;;40.60;9.48;;;12.70;99.90;;;12.94;100.00;101214.56;5096759;28;20448;-71
2023/01/04 09:01:50;;;;;;;37.60;8.57;;;12.70;99.90;;;12.81;100.00;101209.38;5096860;28;20041;-73
2023/01/04 09:04:20;;;;;;;36.03;8.73;;;12.70;99.90;;;12.85;100.00;101206.69;5095502;28;20050;-71
2023/01/04 09:06:49;;;;;;;36.00;7.85;;;12.80;99.90;;;12.99;100.00;101233.97;5096761;28;20036;-70
2023/01/04 09:09:17;;;;;;;38.35;8.90;;;12.80;99.90;;;13.05;100.00;101247.25;5096589;28;20497;-75
2023/01/04 09:11:45;;;;;;;31.77;9.15;;;12.80;99.90;;;12.89;100.00;101194.25;5096307;28;20123;-74
2023/01/04 09:14:14;;;;;;;36.25;8.00;;;12.80;99.90;;;12.99;100.00;101223.34;5096107;28;20074;-74
2023/01/04 09:16:42;;;;;;;31.75;7.65;;;12.80;99.90;;;13.00;100.00;101198.59;5078344;28;20131;-74
2023/01/04 09:19:11;;;;;;;31.60;6.97;;;12.80;99.90;;;12.99;100.00;101231.31;5096210;28;20414;-75
2023/01/04 09:21:50;;;;;;;28.73;7.57;;;12.80;99.90;;;12.88;100.00;101214.59;5096639;28;20478;-73
2023/01/04 09:24:18;;;;;;;35.28;7.95;;;12.80;99.90;;;12.98;100.00;101220.72;5096426;28;20070;-73
2023/01/04 09:26:47;;;;;;;27.42;7.43;;;12.80;99.90;;;12.99;100.00;101215.38;5096062;28;20040;-70
2023/01/04 09:29:16;;;;;;;35.22;7.80;;;12.80;99.90;;;13.03;100.00;101242.78;5096217;28;20043;-71
2023/01/04 09:31:44;;;;;;;32.22;7.53;;;12.80;99.90;;;13.03;100.00;101238.41;5095989;28;20123;-71
2023/01/04 09:34:13;;;;;;;33.08;8.15;;;12.90;99.90;;;13.05;100.00;101209.16;5096148;28;20126;-72
2023/01/04 09:36:45;;;;;;;32.30;7.82;;;12.80;99.90;;;12.75;100.00;101194.38;5095906;28;20079;-70
2023/01/04 09:39:16;;;;;;;35.20;8.20;;;12.80;99.90;;;13.01;100.00;101231.31;5095870;28;20452;-70
2023/01/04 09:41:57;;;;;;;29.40;8.05;;;12.90;99.90;;;12.97;100.00;101222.50;5095876;28;20044;-70
2023/01/04 09:44:37;;;;;;;36.08;8.75;;;12.90;99.90;;;13.12;100.00;101256.06;5096048;28;20131;-70
2023/01/04 09:47:36;;;;;;;32.42;8.98;;;12.90;99.90;;;13.09;100.00;101219.75;5077579;28;20404;-70
2023/01/04 09:50:13;;;;;;;40.88;8.52;;;12.90;99.90;;;13.03;100.00;101254.34;5095611;28;20165;-71
2023/01/04 09:52:51;;;;;;;26.85;6.90;;;12.90;99.90;;;13.10;100.00;101264.03;5094630;28;20067;-71
2023/01/04 09:55:27;;;;;;;37.20;7.50;;;12.90;99.90;;;12.66;100.00;101191.78;5095834;28;20048;-71
2023/01/04 09:58:21;;;;;;;32.13;7.72;;;12.90;99.90;;;13.09;100.00;101258.72;5094504;28;20048;-71
2023/01/04 10:00:58;;;;;;;26.80;6.85;;;13.00;99.90;;;13.12;100.00;101251.63;5095367;28;20078;-72
2023/01/04 10:03:32;;;;;;;30.40;6.90;;;12.90;99.90;;;13.18;100.00;101251.53;5095129;28;20055;-71
2023/01/04 10:06:03;;;;;;;24.45;5.90;;;13.00;99.90;;;13.15;100.00;101258.66;5077600;28;20086;-70
2023/01/04 10:08:31;;;;;;;27.27;6.32;;;13.00;99.90;;;13.12;100.00;101253.41;5095297;28;20064;-71
2023/01/04 10:11:21;;;;;;;23.60;5.97;;;13.00;99.90;;;13.21;100.00;101245.34;5095406;28;20032;-70
2023/01/04 10:14:17;;;;;;;23.05;6.07;;;13.00;99.90;;;13.22;100.00;101266.56;5095060;28;20056;-69
2023/01/04 10:17:04;;;;;;;23.75;5.97;;;13.00;99.90;;;13.21;100.00;101240.91;5095223;28;20058;-64
2023/01/04 10:20:24;;;;;;;18.90;5.30;;;13.00;99.90;;;13.17;100.00;101247.16;5077170;28;20047;-69
2023/01/04 10:23:24;;;;;;;18.38;6.13;;;13.00;99.90;;;13.17;100.00;101243.59;5094810;28;20379;-69
2023/01/04 10:25:57;;;;;;;20.17;5.20;;;13.00;99.90;;;13.23;100.00;101251.50;5094964;28;20036;-67
2023/01/04 10:29:02;;;;;;;18.05;5.95;;;13.00;99.90;;;13.05;100.00;101233.97;5095135;28;20454;-68
2023/01/04 10:31:38;;;;;;;20.85;5.22;;;13.00;99.90;;;13.19;100.00;101249.78;5076901;28;20398;-67
2023/01/04 10:34:22;;;;;;;18.48;5.30;;;13.00;99.90;;;13.17;100.00;101256.88;5095011;28;20052;-68
2023/01/04 10:36:56;;;;;;;19.00;5.82;;;13.00;99.90;;;13.20;100.00;101249.75;5095016;28;20473;-69
2023/01/04 10:39:29;;;;;;;15.88;5.50;;;13.00;99.90;;;13.22;100.00;101249.78;5076771;28;20442;-69
2023/01/04 10:42:15;;;;;;;18.90;5.03;;;13.00;99.90;;;13.26;100.00;101244.41;5095221;28;20048;-69
2023/01/04 10:45:07;;;;;;;18.50;5.60;;;13.00;99.90;;;13.27;100.00;101251.47;5076594;28;20132;-70
2023/01/04 10:47:49;;;;;;;16.73;5.70;;;13.00;99.90;;;13.29;100.00;101262.09;5094417;28;20139;-69
2023/01/04 10:50:21;;;;;;;;;;;13.10;99.90;;;13.23;100.00;101236.47;5093770;28;20044;-69
2023/01/04 10:52:56;;;;;;;14.68;5.95;;;13.10;99.90;;;13.21;100.00;101253.31;5094473;28;19927;-71
2023/01/04 10:55:31;;;;;;;18.83;5.05;;;13.00;99.90;;;13.28;100.00;101255.88;5094406;28;20047;-72
2023/01/04 10:58:05;;;;;;;15.70;5.22;;;13.10;99.90;;;13.33;100.00;101200.94;5094598;28;20100;-72
2023/01/04 11:00:43;;;;;;;17.30;5.10;;;13.10;99.90;;;13.37;100.00;101244.31;5094596;28;20397;-71
2023/01/04 11:03:20;;;;;;;11.90;4.63;;;13.10;99.90;;;13.41;100.00;101241.59;5094181;28;20443;-72
2023/01/04 11:05:54;;;;;;;15.35;4.95;;;13.20;99.90;;;13.32;100.00;101211.56;5076307;28;20101;-70
2023/01/04 11:08:29;;;;;;;13.15;5.40;;;13.20;99.90;;;13.46;100.00;101242.44;5094077;28;20071;-70
2023/01/04 11:11:04;;;;;;;15.65;5.65;;;13.30;99.90;;;12.85;100.00;101137.66;5094319;28;20131;-70
2023/01/04 11:13:34;;;;;;;15.57;5.05;;;13.30;99.90;;;13.44;100.00;101225.63;5094152;28;20060;-70
2023/01/04 11:16:05;;;;;;;18.05;5.20;;;13.30;99.90;;;13.48;100.00;101264.56;5093114;28;20048;-71